ROMMA est une association bénévole à but non lucratif. Votre soutien est indispensable : ADHERER à ROMMA ou FAIRE un DON

Peyrus - (26, Drôme)

Vercors Ouest (430 m)   Longitude: 05°06'28"E   Latitude: 44°54'41"N Station partenaire n°83
 

Détail journalier du     <<     >>

Température Precipitation Humidité Pression Vent Dir Rafale Dir. rafale Second capteur de température situé à 410 m
Heure (°C) (mm) (%) (hPa) (km/h) (km/h) (°C)
01:00 10.208010104N23N10.0
02:00 9.40.28710101N13NNO9.4
03:00 9.208710104NNO18NNO9.4
04:00 9.108710105N19N9.4
05:00 8.909010096N23NNO8.9
06:00 8.709010109N21N8.9
07:00 8.709010106N18N8.9
08:00 8.708910106N21N8.9
09:00 8.708810105N26N8.9
10:00 8.408910107N21NNO8.3
11:00 8.508910117N23NNO8.3
12:00 9.108610119N27N9.4
13:00 9.308510118N31N9.4
14:00 9.708310117NE26N10.0
15:00 10.108010119N29NNO10.0
16:00 11.6075101111N37NNO11.7
17:00 12.1074101111N37NNO12.2
18:00 11.707410119N35N11.7
19:00 11.607410116N26N11.7
20:00 11.707210128N31N11.7
21:00 11.406910128N26NO11.7
22:00 10.9066101311N37N11.1
23:00 9.806810138NNO26NNO10.0
minuit 9.107110141NNO16NNO8.9

Graphique du 11-04-2019

 

Serveur OMMA